createdAt,value
2023-02-22T00:01:35.858Z,193.98
2023-02-22T00:04:05.217Z,192.38
2023-02-22T00:06:32.927Z,193.07
2023-02-22T00:09:02.302Z,188.48
2023-02-22T00:11:31.613Z,204.77
2023-02-22T00:13:58.799Z,188.80
2023-02-22T00:16:26.840Z,200.63
2023-02-22T00:18:54.043Z,194.75
2023-02-22T00:21:21.886Z,206.40
2023-02-22T00:23:49.821Z,195.23
2023-02-22T00:26:19.714Z,204.90
2023-02-22T00:28:53.621Z,193.20
2023-02-22T00:33:49.881Z,200.82
2023-02-22T00:36:17.765Z,219.05
2023-02-22T00:38:44.697Z,202.90
2023-02-22T00:41:12.521Z,221.25
2023-02-22T00:43:39.444Z,202.25
2023-02-22T00:46:06.432Z,202.07
2023-02-22T00:48:33.354Z,210.32
2023-02-22T00:51:00.323Z,201.70
2023-02-22T00:53:27.696Z,215.27
2023-02-22T00:55:54.744Z,203.32
2023-02-22T00:58:22.449Z,213.45
2023-02-22T01:00:50.037Z,213.30
2023-02-22T01:03:20.489Z,214.35
2023-02-22T01:05:47.808Z,208.48
2023-02-22T01:08:17.033Z,201.02
2023-02-22T01:10:44.503Z,200.75
2023-02-22T01:13:13.078Z,211.40
2023-02-22T01:15:42.951Z,212.82
2023-02-22T01:18:12.603Z,195.77
2023-02-22T01:20:39.578Z,196.38
2023-02-22T01:23:08.187Z,204.80
2023-02-22T01:25:35.857Z,211.27
2023-02-22T01:28:05.274Z,202.00
2023-02-22T01:30:34.243Z,206.57
2023-02-22T01:33:02.964Z,208.75
2023-02-22T01:35:32.995Z,207.00
2023-02-22T01:37:59.976Z,213.00
2023-02-22T01:40:30.396Z,210.35
2023-02-22T01:43:00.492Z,202.52
2023-02-22T01:45:30.355Z,208.75
2023-02-22T01:48:04.539Z,209.95
2023-02-22T01:50:35.592Z,206.07
2023-02-22T01:53:03.280Z,204.68
2023-02-22T01:55:31.873Z,205.13
2023-02-22T01:57:59.031Z,205.85
2023-02-22T02:00:27.731Z,207.02
2023-02-22T02:03:27.498Z,206.88
2023-02-22T02:05:58.835Z,199.63
2023-02-22T02:09:16.104Z,208.75
2023-02-22T02:11:43.399Z,219.32
2023-02-22T02:14:11.684Z,210.48
2023-02-22T02:16:48.110Z,208.73
2023-02-22T02:19:47.954Z,203.93
2023-02-22T02:22:26.589Z,210.75
2023-02-22T02:25:24.172Z,205.43
2023-02-22T02:28:21.789Z,221.32
2023-02-22T02:31:26.370Z,224.35
2023-02-22T02:34:02.135Z,206.20
2023-02-22T02:36:33.320Z,213.27
2023-02-22T02:39:19.570Z,223.52
2023-02-22T02:41:50.818Z,204.07
2023-02-22T02:44:31.092Z,226.00
2023-02-22T02:47:11.123Z,224.35
2023-02-22T02:49:48.325Z,211.20
2023-02-22T02:52:19.086Z,208.68
2023-02-22T02:54:48.693Z,215.38
2023-02-22T02:57:15.697Z,222.50
2023-02-22T02:59:43.189Z,204.02
2023-02-22T03:02:28.628Z,211.15
2023-02-22T03:05:15.115Z,226.18
2023-02-22T03:07:53.928Z,212.93
2023-02-22T03:10:45.558Z,207.30
2023-02-22T03:13:19.446Z,208.50
2023-02-22T03:15:53.737Z,226.23
2023-02-22T03:18:39.541Z,217.05
2023-02-22T03:21:21.657Z,210.82
2023-02-22T03:23:58.713Z,207.00
2023-02-22T03:26:33.912Z,216.60
2023-02-22T03:29:05.298Z,205.77
2023-02-22T03:31:39.983Z,213.20
2023-02-22T03:34:15.732Z,213.90
2023-02-22T03:36:50.143Z,213.73
2023-02-22T03:39:20.355Z,211.68
2023-02-22T03:41:52.927Z,213.23
2023-02-22T03:44:27.531Z,203.63
2023-02-22T03:46:57.836Z,212.75
2023-02-22T03:49:42.722Z,213.20
2023-02-22T03:52:11.976Z,211.05
2023-02-22T03:54:40.963Z,217.85
2023-02-22T03:57:28.270Z,216.98
2023-02-22T04:00:08.789Z,215.18
2023-02-22T04:02:41.862Z,217.07
2023-02-22T04:05:14.269Z,202.63
2023-02-22T04:07:42.709Z,208.60
2023-02-22T04:10:12.687Z,209.82
2023-02-22T04:12:39.781Z,209.73
2023-02-22T04:15:09.417Z,210.32
2023-02-22T04:17:36.852Z,212.23
2023-02-22T04:20:06.792Z,209.95
2023-02-22T04:22:54.997Z,209.95
2023-02-22T04:25:23.856Z,223.43
2023-02-22T04:27:52.753Z,213.25
2023-02-22T04:30:25.780Z,229.85
2023-02-22T04:32:53.207Z,197.68
2023-02-22T04:35:22.834Z,201.73
2023-02-22T04:37:49.769Z,209.30
2023-02-22T04:40:18.002Z,196.55
2023-02-22T04:42:45.018Z,208.30
2023-02-22T04:45:12.558Z,191.50
2023-02-22T04:47:39.995Z,213.43
2023-02-22T04:50:08.693Z,191.60
2023-02-22T04:52:36.106Z,190.80
2023-02-22T04:55:04.820Z,196.85
2023-02-22T04:57:32.824Z,178.52
2023-02-22T04:59:59.862Z,204.50
2023-02-22T05:02:27.148Z,202.38
2023-02-22T05:04:54.165Z,209.85
2023-02-22T05:07:21.129Z,193.60
2023-02-22T05:09:48.135Z,182.35
2023-02-22T05:12:15.301Z,200.50
2023-02-22T05:14:42.218Z,198.10
2023-02-22T05:17:09.256Z,192.52
2023-02-22T05:19:36.244Z,188.85
2023-02-22T05:22:05.698Z,195.82
2023-02-22T05:24:32.708Z,198.60
2023-02-22T05:26:59.711Z,189.98
2023-02-22T05:29:26.685Z,207.05
2023-02-22T05:31:53.781Z,204.80
2023-02-22T05:34:20.825Z,198.00
2023-02-22T05:36:47.791Z,196.32
2023-02-22T05:39:14.749Z,188.13
2023-02-22T05:41:41.640Z,198.55
2023-02-22T05:44:08.638Z,193.88
2023-02-22T05:46:35.778Z,198.00
2023-02-22T05:49:02.744Z,212.93
2023-02-22T05:51:29.731Z,189.75
2023-02-22T05:53:56.939Z,190.23
2023-02-22T05:56:29.130Z,198.55
2023-02-22T05:58:57.220Z,198.70
2023-02-22T06:01:24.658Z,208.40
2023-02-22T06:03:52.085Z,200.45
2023-02-22T06:06:22.212Z,192.27
2023-02-22T06:08:49.842Z,202.77
2023-02-22T06:11:17.251Z,192.55
2023-02-22T06:13:50.477Z,183.23
2023-02-22T06:16:17.458Z,197.57
2023-02-22T06:18:44.405Z,200.63
2023-02-22T06:21:11.325Z,183.45
2023-02-22T06:23:38.339Z,181.80
2023-02-22T06:26:05.793Z,194.90
2023-02-22T06:28:32.700Z,199.13
2023-02-22T06:30:59.630Z,192.85
2023-02-22T06:33:26.542Z,190.52
2023-02-22T06:35:53.478Z,184.35
2023-02-22T06:38:25.657Z,191.48
2023-02-22T06:40:52.599Z,201.65
2023-02-22T06:43:19.507Z,195.18
2023-02-22T06:45:46.726Z,201.52
2023-02-22T06:48:14.216Z,219.82
2023-02-22T06:50:41.170Z,185.93
2023-02-22T06:53:09.282Z,193.50
2023-02-22T06:55:36.561Z,192.40
2023-02-22T06:58:05.137Z,190.20
2023-02-22T07:00:32.766Z,186.88
2023-02-22T07:03:03.864Z,195.15
2023-02-22T07:05:30.952Z,183.68
2023-02-22T07:08:05.321Z,185.98
2023-02-22T07:10:34.156Z,192.10
2023-02-22T07:13:01.629Z,186.43
2023-02-22T07:15:30.396Z,190.13
2023-02-22T07:17:57.685Z,198.15
2023-02-22T07:20:26.807Z,191.82
2023-02-22T07:22:53.847Z,204.32
2023-02-22T07:25:22.691Z,178.77
2023-02-22T07:27:49.652Z,196.15
2023-02-22T07:30:18.819Z,189.00
2023-02-22T07:32:46.844Z,190.02
2023-02-22T07:35:19.081Z,187.32
2023-02-22T07:37:46.084Z,190.50
2023-02-22T07:40:13.035Z,181.38
2023-02-22T07:43:02.353Z,187.30
2023-02-22T07:45:36.224Z,186.57
2023-02-22T07:48:05.593Z,199.43
2023-02-22T07:50:33.843Z,192.93
2023-02-22T07:53:06.871Z,188.52
2023-02-22T07:55:34.704Z,195.15
2023-02-22T07:58:04.954Z,177.27
2023-02-22T08:00:40.332Z,188.55
2023-02-22T08:03:14.730Z,184.63
2023-02-22T08:05:45.194Z,194.85
2023-02-22T08:08:14.662Z,187.18
2023-02-22T08:10:42.668Z,194.23
2023-02-22T08:13:10.449Z,196.63
2023-02-22T08:15:39.784Z,192.85
2023-02-22T08:18:09.532Z,197.90
2023-02-22T08:20:38.504Z,198.32
2023-02-22T08:23:06.694Z,193.70
2023-02-22T08:25:33.920Z,192.70
2023-02-22T08:28:04.572Z,196.73
2023-02-22T08:30:32.918Z,202.52
2023-02-22T08:33:00.039Z,206.45
2023-02-22T08:35:27.726Z,199.38
2023-02-22T08:37:58.686Z,195.10
2023-02-22T08:40:27.973Z,193.07
2023-02-22T08:42:55.234Z,190.30
2023-02-22T08:45:22.251Z,204.38
2023-02-22T08:47:49.688Z,198.07
2023-02-22T08:50:23.402Z,187.55
2023-02-22T08:55:27.116Z,193.07
2023-02-22T08:57:54.070Z,171.57
2023-02-22T09:00:25.353Z,132.98
2023-02-22T09:02:53.087Z,133.27
2023-02-22T09:05:20.238Z,124.78
2023-02-22T09:07:47.640Z,149.07
2023-02-22T09:10:21.146Z,153.75
2023-02-22T09:12:48.103Z,143.32
2023-02-22T09:15:15.572Z,157.00
2023-02-22T09:17:42.555Z,150.90
2023-02-22T09:20:12.426Z,151.07
2023-02-22T09:22:39.779Z,144.85
2023-02-22T09:25:16.213Z,149.60
2023-02-22T09:27:44.191Z,127.65
2023-02-22T09:30:24.166Z,120.13
2023-02-22T09:32:55.742Z,112.15
2023-02-22T09:35:27.437Z,118.00
2023-02-22T09:37:59.312Z,143.40
2023-02-22T09:40:31.959Z,140.15
2023-02-22T09:43:33.737Z,136.43
2023-02-22T09:46:20.977Z,139.52
2023-02-22T09:48:59.888Z,118.50
2023-02-22T09:51:49.431Z,125.97
2023-02-22T09:54:22.780Z,130.20
2023-02-22T09:56:52.562Z,133.13
2023-02-22T09:59:30.081Z,131.93
2023-02-22T10:02:31.598Z,127.03
2023-02-22T10:05:37.871Z,136.82
2023-02-22T10:08:10.261Z,147.27
2023-02-22T10:10:39.728Z,143.75
2023-02-22T10:13:33.014Z,139.77
2023-02-22T10:16:33.822Z,143.13
2023-02-22T10:19:08.261Z,143.77
2023-02-22T10:21:58.220Z,144.82
2023-02-22T10:24:27.924Z,128.23
2023-02-22T10:26:57.917Z,141.57
2023-02-22T10:29:27.626Z,149.05
2023-02-22T10:31:59.311Z,141.55
2023-02-22T10:34:30.587Z,149.20
2023-02-22T10:37:25.635Z,148.82
2023-02-22T10:39:58.631Z,147.68
2023-02-22T10:42:27.542Z,154.30
2023-02-22T10:44:54.514Z,149.52
2023-02-22T10:47:23.078Z,156.38
2023-02-22T10:49:57.580Z,142.27
2023-02-22T10:52:34.651Z,146.23
2023-02-22T10:55:14.536Z,140.88
2023-02-22T10:57:46.253Z,154.48
2023-02-22T11:00:26.430Z,141.60
2023-02-22T11:03:02.533Z,144.25
2023-02-22T11:05:36.892Z,149.50
2023-02-22T11:08:17.181Z,152.15
2023-02-22T11:10:44.568Z,132.80
2023-02-22T11:13:18.724Z,159.02
2023-02-22T11:15:45.635Z,142.18
2023-02-22T11:18:35.619Z,147.00
2023-02-22T11:21:08.292Z,148.93
2023-02-22T11:23:37.654Z,149.27
2023-02-22T11:26:24.905Z,145.88
2023-02-22T11:28:56.340Z,149.20
2023-02-22T11:31:29.130Z,147.80
2023-02-22T11:33:59.882Z,139.27
2023-02-22T11:36:43.357Z,142.20
2023-02-22T11:39:27.660Z,145.35
2023-02-22T11:41:57.913Z,136.80
2023-02-22T11:44:30.636Z,145.80
2023-02-22T11:47:06.888Z,141.23
2023-02-22T11:49:41.552Z,136.13
2023-02-22T11:52:42.538Z,133.75
2023-02-22T11:55:42.372Z,142.18
2023-02-22T11:58:41.441Z,142.25
2023-02-22T12:01:30.246Z,137.88
2023-02-22T12:04:15.854Z,148.43
2023-02-22T12:06:52.019Z,139.70
2023-02-22T12:09:33.023Z,148.02
2023-02-22T12:12:28.134Z,143.13
2023-02-22T12:15:18.205Z,146.27
2023-02-22T12:18:18.597Z,149.52
2023-02-22T12:20:47.929Z,145.95
2023-02-22T12:23:33.587Z,140.70
2023-02-22T12:26:23.120Z,144.02
2023-02-22T12:29:01.434Z,153.48
2023-02-22T12:31:42.136Z,153.00
2023-02-22T12:34:27.350Z,159.30
2023-02-22T12:37:18.014Z,151.65
2023-02-22T12:40:08.873Z,148.27
2023-02-22T12:43:00.829Z,146.57
2023-02-22T12:45:46.460Z,148.13
2023-02-22T12:48:42.241Z,151.52
2023-02-22T12:51:14.800Z,148.57
2023-02-22T12:53:52.828Z,144.35
2023-02-22T12:56:34.086Z,142.07
2023-02-22T12:59:34.184Z,141.05
2023-02-22T13:02:22.537Z,150.00
2023-02-22T13:04:49.629Z,145.75
2023-02-22T13:07:30.571Z,142.20
2023-02-22T13:10:14.537Z,137.63
2023-02-22T13:12:57.700Z,147.05
2023-02-22T13:15:36.960Z,151.97
2023-02-22T13:18:19.088Z,141.48
2023-02-22T13:20:46.067Z,154.32
2023-02-22T13:23:25.749Z,153.35
2023-02-22T13:26:23.749Z,156.27
2023-02-22T13:29:16.473Z,152.30
2023-02-22T13:31:54.614Z,154.18
2023-02-22T13:34:40.313Z,155.30
2023-02-22T13:37:52.063Z,165.50
2023-02-22T13:40:30.954Z,162.40
2023-02-22T13:43:30.178Z,158.43
2023-02-22T13:46:29.300Z,142.30
2023-02-22T13:49:08.180Z,157.00
2023-02-22T13:51:59.040Z,156.98
2023-02-22T13:54:45.061Z,148.73
2023-02-22T13:57:25.798Z,155.82
2023-02-22T14:00:14.485Z,156.00
2023-02-22T14:03:01.025Z,157.65
2023-02-22T14:05:41.280Z,163.77
2023-02-22T14:08:28.162Z,146.55
2023-02-22T14:10:56.273Z,160.80
2023-02-22T14:13:27.774Z,159.63
2023-02-22T14:16:00.649Z,160.82
2023-02-22T14:18:31.749Z,167.85
2023-02-22T14:21:11.710Z,154.80
2023-02-22T14:23:42.934Z,163.98
2023-02-22T14:26:20.822Z,160.95
2023-02-22T14:29:02.786Z,160.02
2023-02-22T14:31:54.810Z,153.32
2023-02-22T14:34:41.862Z,154.95
2023-02-22T14:37:14.622Z,157.95
2023-02-22T14:39:46.797Z,167.63
2023-02-22T14:42:13.860Z,151.18
2023-02-22T14:44:51.423Z,148.70
2023-02-22T14:47:28.257Z,147.43
2023-02-22T14:50:03.749Z,148.90
2023-02-22T14:52:35.044Z,158.82
2023-02-22T14:55:24.357Z,152.95
2023-02-22T14:58:08.719Z,157.20
2023-02-22T15:00:45.904Z,161.02
2023-02-22T15:03:40.681Z,177.07
2023-02-22T15:06:14.905Z,152.48
2023-02-22T15:08:48.680Z,164.10
2023-02-22T15:11:31.119Z,152.88
2023-02-22T15:13:59.591Z,160.07
2023-02-22T15:16:34.205Z,158.15
2023-02-22T15:19:07.772Z,153.40
2023-02-22T15:21:35.563Z,157.75
2023-02-22T15:24:06.615Z,157.35
2023-02-22T15:26:49.038Z,156.95
2023-02-22T15:29:23.056Z,153.77
2023-02-22T15:31:50.895Z,152.00
2023-02-22T15:34:24.467Z,156.90
2023-02-22T15:36:56.261Z,157.55
2023-02-22T15:39:34.505Z,157.27
2023-02-22T15:42:20.813Z,147.27
2023-02-22T15:44:50.193Z,156.98
2023-02-22T15:47:20.241Z,152.10
2023-02-22T15:50:25.917Z,149.52
2023-02-22T15:53:04.012Z,154.45
2023-02-22T15:55:37.277Z,164.63
2023-02-22T15:58:10.881Z,159.60
2023-02-22T16:00:40.626Z,165.32
2023-02-22T16:03:13.609Z,157.40
2023-02-22T16:05:49.881Z,150.95
2023-02-22T16:08:29.343Z,150.13
2023-02-22T16:11:04.638Z,150.95
2023-02-22T16:13:35.882Z,164.77
2023-02-22T16:16:22.731Z,153.13
2023-02-22T16:18:51.536Z,159.18
2023-02-22T16:21:21.659Z,149.07
2023-02-22T16:23:51.847Z,160.57
2023-02-22T16:26:33.782Z,159.77
2023-02-22T16:29:07.567Z,159.15
2023-02-22T16:34:08.168Z,161.05
2023-02-22T16:36:51.596Z,156.45
2023-02-22T16:39:29.938Z,155.02
2023-02-22T16:42:03.792Z,167.40
2023-02-22T16:44:31.383Z,154.20
2023-02-22T16:47:00.602Z,162.77
2023-02-22T16:49:27.801Z,165.32
2023-02-22T16:51:58.825Z,168.52
2023-02-22T16:54:34.429Z,165.82
2023-02-22T16:57:03.958Z,163.50
2023-02-22T16:59:38.639Z,152.60
2023-02-22T17:02:10.121Z,154.52
2023-02-22T17:04:37.059Z,162.65
2023-02-22T17:07:05.412Z,159.95
2023-02-22T17:09:32.958Z,155.18
2023-02-22T17:12:00.340Z,172.25
2023-02-22T17:14:33.599Z,160.50
2023-02-22T17:17:00.613Z,172.15
2023-02-22T17:19:27.543Z,170.73
2023-02-22T17:21:54.781Z,173.38
2023-02-22T17:24:24.717Z,168.82
2023-02-22T17:26:53.166Z,175.25
2023-02-22T17:29:20.678Z,170.45
2023-02-22T17:31:48.991Z,165.80
2023-02-22T17:34:16.251Z,164.23
2023-02-22T17:36:43.660Z,167.90
2023-02-22T17:39:11.030Z,178.73
2023-02-22T17:41:40.457Z,170.63
2023-02-22T17:44:07.815Z,180.27
2023-02-22T17:46:36.704Z,190.35
2023-02-22T17:49:03.726Z,185.45
2023-02-22T17:51:30.706Z,189.75
2023-02-22T17:53:57.663Z,214.10
2023-02-22T17:56:24.645Z,220.50
2023-02-22T17:58:54.366Z,204.35
2023-02-22T18:01:24.970Z,199.93
2023-02-22T18:03:53.237Z,193.00
2023-02-22T18:06:25.164Z,191.70
2023-02-22T18:08:55.528Z,189.50
2023-02-22T18:11:26.586Z,175.82
2023-02-22T18:13:58.444Z,170.50
2023-02-22T18:16:26.778Z,168.32
2023-02-22T18:18:55.155Z,169.00
2023-02-22T18:21:23.344Z,165.88
2023-02-22T18:23:50.361Z,177.90
2023-02-22T18:26:20.377Z,175.45
2023-02-22T18:28:50.833Z,181.00
2023-02-22T18:31:20.193Z,183.35
2023-02-22T18:33:50.503Z,175.13
2023-02-22T18:36:23.000Z,170.85
2023-02-22T18:38:52.526Z,181.40
2023-02-22T18:41:25.098Z,178.93
2023-02-22T18:43:54.073Z,175.68
2023-02-22T18:46:23.120Z,173.95
2023-02-22T18:48:54.600Z,184.40
2023-02-22T18:51:22.692Z,180.35
2023-02-22T18:53:50.142Z,192.70
2023-02-22T18:56:22.510Z,195.70
2023-02-22T18:58:58.712Z,186.48
2023-02-22T19:01:26.245Z,181.65
2023-02-22T19:03:53.590Z,185.48
2023-02-22T19:06:23.722Z,189.50
2023-02-22T19:08:51.181Z,186.52
2023-02-22T19:11:21.899Z,184.77
2023-02-22T19:13:51.666Z,185.13
2023-02-22T19:16:21.336Z,182.00
2023-02-22T19:18:50.095Z,182.32
2023-02-22T19:21:17.452Z,177.70
2023-02-22T19:23:48.634Z,182.80
2023-02-22T19:26:21.169Z,191.35
2023-02-22T19:28:49.073Z,185.77
2023-02-22T19:31:31.551Z,198.15
2023-02-22T19:34:09.153Z,188.13
2023-02-22T19:36:41.492Z,183.63
2023-02-22T19:39:09.743Z,196.77
2023-02-22T19:41:36.794Z,181.38
2023-02-22T19:44:05.182Z,192.00
2023-02-22T19:46:32.464Z,179.38
2023-02-22T19:49:00.790Z,186.50
2023-02-22T19:51:29.669Z,191.05
2023-02-22T19:53:59.143Z,197.85
2023-02-22T19:56:31.015Z,185.43
2023-02-22T19:59:09.236Z,188.13
2023-02-22T20:01:37.132Z,181.65
2023-02-22T20:04:06.733Z,187.40
2023-02-22T20:06:42.734Z,179.68
2023-02-22T20:09:12.992Z,173.73
2023-02-22T20:11:40.389Z,190.07
2023-02-22T20:14:07.359Z,187.95
2023-02-22T20:16:35.726Z,181.57
2023-02-22T20:19:02.845Z,191.80
2023-02-22T20:21:31.923Z,189.75
2023-02-22T20:24:03.007Z,177.57
2023-02-22T20:26:32.100Z,180.43
2023-02-22T20:28:59.382Z,191.50
2023-02-22T20:31:26.970Z,185.85
2023-02-22T20:33:55.994Z,193.07
2023-02-22T20:36:23.249Z,176.20
2023-02-22T20:38:59.146Z,183.98
2023-02-22T20:41:31.569Z,188.25
2023-02-22T20:43:59.952Z,182.27
2023-02-22T20:46:31.323Z,186.13
2023-02-22T20:49:01.285Z,189.65
2023-02-22T20:51:29.478Z,185.70
2023-02-22T20:54:00.275Z,182.60
2023-02-22T20:56:29.481Z,183.57
2023-02-22T20:59:01.939Z,186.00
2023-02-22T21:01:29.558Z,190.90
2023-02-22T21:04:01.388Z,179.27
2023-02-22T21:06:29.058Z,179.45
2023-02-22T21:08:58.437Z,186.77
2023-02-22T21:11:27.505Z,191.82
2023-02-22T21:13:54.764Z,191.52
2023-02-22T21:16:30.418Z,183.13
2023-02-22T21:19:00.835Z,183.25
2023-02-22T21:21:29.193Z,187.90
2023-02-22T21:24:01.748Z,192.35
2023-02-22T21:26:31.944Z,188.52
2023-02-22T21:29:04.739Z,182.95
2023-02-22T21:31:33.081Z,191.17
2023-02-22T21:34:01.165Z,196.52
2023-02-22T21:36:28.877Z,196.35
2023-02-22T21:39:02.046Z,194.52
2023-02-22T21:41:30.982Z,196.63
2023-02-22T21:43:59.282Z,199.02
2023-02-22T21:46:29.224Z,198.15
2023-02-22T21:48:58.619Z,186.45
2023-02-22T21:51:32.090Z,194.43
2023-02-22T21:54:01.477Z,199.55
2023-02-22T21:56:30.151Z,185.38
2023-02-22T21:59:03.501Z,193.65
2023-02-22T22:01:36.582Z,205.68
2023-02-22T22:04:04.899Z,201.27
2023-02-22T22:06:34.408Z,209.27
2023-02-22T22:09:04.993Z,191.20
2023-02-22T22:11:32.906Z,198.88
2023-02-22T22:14:00.485Z,197.48
2023-02-22T22:16:29.701Z,192.82
2023-02-22T22:18:57.291Z,186.13
2023-02-22T22:21:26.230Z,206.63
2023-02-22T22:23:57.507Z,201.88
2023-02-22T22:26:26.062Z,183.98
2023-02-22T22:28:59.209Z,197.43
2023-02-22T22:31:27.660Z,205.73
2023-02-22T22:33:56.359Z,203.50
2023-02-22T22:36:25.171Z,206.63
2023-02-22T22:38:52.886Z,190.98
2023-02-22T22:41:22.023Z,193.95
2023-02-22T22:43:49.016Z,193.98
2023-02-22T22:46:17.528Z,189.38
2023-02-22T22:48:49.254Z,192.07
2023-02-22T22:51:20.446Z,186.90
2023-02-22T22:53:49.829Z,182.00
2023-02-22T22:56:29.306Z,196.65
2023-02-22T22:58:58.789Z,191.40
2023-02-22T23:01:33.023Z,196.80
2023-02-22T23:04:02.481Z,196.35
2023-02-22T23:06:33.128Z,190.20
2023-02-22T23:09:01.849Z,196.50
2023-02-22T23:11:33.667Z,199.02
2023-02-22T23:14:03.642Z,201.90
2023-02-22T23:16:32.307Z,195.35
2023-02-22T23:18:59.317Z,196.90
2023-02-22T23:21:26.277Z,186.40
2023-02-22T23:23:58.627Z,196.18
2023-02-22T23:26:26.879Z,187.55
2023-02-22T23:28:59.187Z,194.85
2023-02-22T23:31:29.396Z,201.52
2023-02-22T23:33:58.974Z,184.90
2023-02-22T23:36:26.653Z,182.55
2023-02-22T23:38:54.261Z,186.77
2023-02-22T23:41:25.043Z,186.85
2023-02-22T23:43:52.018Z,190.05
2023-02-22T23:46:19.279Z,184.10
2023-02-22T23:48:54.628Z,193.02
2023-02-22T23:51:25.614Z,181.75
2023-02-22T23:53:55.830Z,179.23
2023-02-22T23:56:26.534Z,171.45
2023-02-22T23:58:57.461Z,181.57
